sensor_id;sensor_type;location;lat;lon;timestamp;P1;durP1;ratioP1;P2;durP2;ratioP2
67156;SDS011;54086;50.126;8.710;2023-11-19T00:00:34;14.27;;;7.37;;
67156;SDS011;54086;50.126;8.710;2023-11-19T00:03:00;14.93;;;7.55;;
67156;SDS011;54086;50.126;8.710;2023-11-19T00:05:26;12.40;;;6.38;;
67156;SDS011;54086;50.126;8.710;2023-11-19T00:07:52;14.43;;;7.35;;
67156;SDS011;54086;50.126;8.710;2023-11-19T00:10:18;11.47;;;6.70;;
67156;SDS011;54086;50.126;8.710;2023-11-19T00:12:44;13.23;;;6.50;;
67156;SDS011;54086;50.126;8.710;2023-11-19T00:15:11;14.37;;;6.73;;
67156;SDS011;54086;50.126;8.710;2023-11-19T00:17:38;13.48;;;6.38;;
67156;SDS011;54086;50.126;8.710;2023-11-19T00:20:06;12.90;;;7.00;;
67156;SDS011;54086;50.126;8.710;2023-11-19T00:22:32;14.95;;;7.60;;
67156;SDS011;54086;50.126;8.710;2023-11-19T00:24:57;13.67;;;7.67;;
67156;SDS011;54086;50.126;8.710;2023-11-19T00:27:24;12.02;;;6.90;;
67156;SDS011;54086;50.126;8.710;2023-11-19T00:29:50;14.53;;;8.07;;
67156;SDS011;54086;50.126;8.710;2023-11-19T00:32:15;16.38;;;8.15;;
67156;SDS011;54086;50.126;8.710;2023-11-19T00:34:43;13.77;;;6.83;;
67156;SDS011;54086;50.126;8.710;2023-11-19T00:37:09;15.32;;;8.05;;
67156;SDS011;54086;50.126;8.710;2023-11-19T00:39:34;13.47;;;7.83;;
67156;SDS011;54086;50.126;8.710;2023-11-19T00:42:00;14.30;;;7.40;;
67156;SDS011;54086;50.126;8.710;2023-11-19T00:44:25;13.27;;;7.37;;
67156;SDS011;54086;50.126;8.710;2023-11-19T00:46:50;14.17;;;7.93;;
67156;SDS011;54086;50.126;8.710;2023-11-19T00:49:16;14.90;;;7.97;;
67156;SDS011;54086;50.126;8.710;2023-11-19T00:51:41;14.73;;;7.90;;
67156;SDS011;54086;50.126;8.710;2023-11-19T00:54:07;14.53;;;7.90;;
67156;SDS011;54086;50.126;8.710;2023-11-19T00:56:32;13.20;;;7.40;;
67156;SDS011;54086;50.126;8.710;2023-11-19T00:58:57;15.63;;;8.27;;
67156;SDS011;54086;50.126;8.710;2023-11-19T01:01:25;13.90;;;7.93;;
67156;SDS011;54086;50.126;8.710;2023-11-19T01:03:50;15.82;;;8.27;;
67156;SDS011;54086;50.126;8.710;2023-11-19T01:06:26;16.93;;;7.83;;
67156;SDS011;54086;50.126;8.710;2023-11-19T01:08:52;16.33;;;8.07;;
67156;SDS011;54086;50.126;8.710;2023-11-19T01:11:21;14.47;;;7.80;;
67156;SDS011;54086;50.126;8.710;2023-11-19T01:13:47;15.02;;;8.23;;
67156;SDS011;54086;50.126;8.710;2023-11-19T01:16:13;14.63;;;7.85;;
67156;SDS011;54086;50.126;8.710;2023-11-19T01:18:39;13.95;;;7.80;;
67156;SDS011;54086;50.126;8.710;2023-11-19T01:21:04;11.97;;;6.80;;
67156;SDS011;54086;50.126;8.710;2023-11-19T01:23:30;13.85;;;7.50;;
67156;SDS011;54086;50.126;8.710;2023-11-19T01:25:56;21.87;;;10.30;;
67156;SDS011;54086;50.126;8.710;2023-11-19T01:28:21;14.23;;;7.90;;
67156;SDS011;54086;50.126;8.710;2023-11-19T01:30:46;14.10;;;7.63;;
67156;SDS011;54086;50.126;8.710;2023-11-19T01:33:12;13.82;;;7.55;;
67156;SDS011;54086;50.126;8.710;2023-11-19T01:35:37;13.03;;;7.17;;
67156;SDS011;54086;50.126;8.710;2023-11-19T01:38:02;13.57;;;7.00;;
67156;SDS011;54086;50.126;8.710;2023-11-19T01:40:28;13.97;;;7.40;;
67156;SDS011;54086;50.126;8.710;2023-11-19T01:42:53;13.57;;;7.80;;
67156;SDS011;54086;50.126;8.710;2023-11-19T01:45:26;13.57;;;6.97;;
67156;SDS011;54086;50.126;8.710;2023-11-19T01:47:54;12.05;;;6.88;;
67156;SDS011;54086;50.126;8.710;2023-11-19T01:50:20;12.02;;;6.82;;
67156;SDS011;54086;50.126;8.710;2023-11-19T01:52:47;13.80;;;6.68;;
67156;SDS011;54086;50.126;8.710;2023-11-19T01:55:13;12.47;;;6.37;;
67156;SDS011;54086;50.126;8.710;2023-11-19T01:57:39;11.95;;;6.53;;
67156;SDS011;54086;50.126;8.710;2023-11-19T02:00:06;13.63;;;6.57;;
67156;SDS011;54086;50.126;8.710;2023-11-19T02:02:36;11.30;;;6.28;;
67156;SDS011;54086;50.126;8.710;2023-11-19T02:05:02;12.50;;;6.47;;
67156;SDS011;54086;50.126;8.710;2023-11-19T02:07:28;12.30;;;6.40;;
67156;SDS011;54086;50.126;8.710;2023-11-19T02:09:54;11.35;;;6.72;;
67156;SDS011;54086;50.126;8.710;2023-11-19T02:12:19;10.77;;;5.50;;
67156;SDS011;54086;50.126;8.710;2023-11-19T02:14:45;11.27;;;6.00;;
67156;SDS011;54086;50.126;8.710;2023-11-19T02:19:52;10.75;;;5.60;;
67156;SDS011;54086;50.126;8.710;2023-11-19T02:22:18;11.07;;;5.53;;
67156;SDS011;54086;50.126;8.710;2023-11-19T02:24:44;11.20;;;5.90;;
67156;SDS011;54086;50.126;8.710;2023-11-19T02:27:15;10.02;;;5.30;;
67156;SDS011;54086;50.126;8.710;2023-11-19T02:30:01;10.70;;;5.77;;
67156;SDS011;54086;50.126;8.710;2023-11-19T02:32:31;10.30;;;5.43;;
67156;SDS011;54086;50.126;8.710;2023-11-19T02:34:56;11.07;;;5.70;;
67156;SDS011;54086;50.126;8.710;2023-11-19T02:37:21;10.95;;;5.38;;
67156;SDS011;54086;50.126;8.710;2023-11-19T02:39:47;10.27;;;5.23;;
67156;SDS011;54086;50.126;8.710;2023-11-19T02:42:12;9.90;;;5.60;;
67156;SDS011;54086;50.126;8.710;2023-11-19T02:44:38;11.60;;;5.47;;
67156;SDS011;54086;50.126;8.710;2023-11-19T02:47:05;9.00;;;4.90;;
67156;SDS011;54086;50.126;8.710;2023-11-19T02:49:33;10.05;;;5.35;;
67156;SDS011;54086;50.126;8.710;2023-11-19T02:51:58;9.70;;;5.03;;
67156;SDS011;54086;50.126;8.710;2023-11-19T02:54:24;10.38;;;4.72;;
67156;SDS011;54086;50.126;8.710;2023-11-19T02:56:52;9.75;;;5.18;;
67156;SDS011;54086;50.126;8.710;2023-11-19T02:59:20;10.00;;;5.32;;
67156;SDS011;54086;50.126;8.710;2023-11-19T03:01:52;9.20;;;5.13;;
67156;SDS011;54086;50.126;8.710;2023-11-19T03:04:18;10.32;;;4.97;;
67156;SDS011;54086;50.126;8.710;2023-11-19T03:06:46;9.77;;;4.70;;
67156;SDS011;54086;50.126;8.710;2023-11-19T03:09:12;9.18;;;4.68;;
67156;SDS011;54086;50.126;8.710;2023-11-19T03:11:37;9.33;;;5.20;;
67156;SDS011;54086;50.126;8.710;2023-11-19T03:14:03;9.68;;;5.15;;
67156;SDS011;54086;50.126;8.710;2023-11-19T03:16:29;8.87;;;4.67;;
67156;SDS011;54086;50.126;8.710;2023-11-19T03:18:54;9.15;;;4.30;;
67156;SDS011;54086;50.126;8.710;2023-11-19T03:21:26;8.13;;;4.17;;
67156;SDS011;54086;50.126;8.710;2023-11-19T03:23:53;9.45;;;4.28;;
67156;SDS011;54086;50.126;8.710;2023-11-19T03:26:18;10.27;;;4.23;;
67156;SDS011;54086;50.126;8.710;2023-11-19T03:28:43;8.80;;;4.03;;
67156;SDS011;54086;50.126;8.710;2023-11-19T03:31:09;8.10;;;4.00;;
67156;SDS011;54086;50.126;8.710;2023-11-19T03:33:34;9.07;;;4.00;;
67156;SDS011;54086;50.126;8.710;2023-11-19T03:36:00;8.97;;;4.70;;
67156;SDS011;54086;50.126;8.710;2023-11-19T03:38:25;8.47;;;4.07;;
67156;SDS011;54086;50.126;8.710;2023-11-19T03:40:50;9.10;;;4.33;;
67156;SDS011;54086;50.126;8.710;2023-11-19T03:43:16;8.80;;;4.65;;
67156;SDS011;54086;50.126;8.710;2023-11-19T03:45:41;10.03;;;4.80;;
67156;SDS011;54086;50.126;8.710;2023-11-19T03:48:07;9.20;;;4.50;;
67156;SDS011;54086;50.126;8.710;2023-11-19T03:50:32;10.00;;;4.70;;
67156;SDS011;54086;50.126;8.710;2023-11-19T03:52:58;9.20;;;5.13;;
67156;SDS011;54086;50.126;8.710;2023-11-19T03:55:24;9.40;;;4.47;;
67156;SDS011;54086;50.126;8.710;2023-11-19T03:57:49;9.57;;;5.00;;
67156;SDS011;54086;50.126;8.710;2023-11-19T04:00:15;9.50;;;4.90;;
67156;SDS011;54086;50.126;8.710;2023-11-19T04:02:41;9.25;;;5.10;;
67156;SDS011;54086;50.126;8.710;2023-11-19T04:05:06;9.40;;;4.83;;
67156;SDS011;54086;50.126;8.710;2023-11-19T04:07:32;9.48;;;5.57;;
67156;SDS011;54086;50.126;8.710;2023-11-19T04:09:58;9.13;;;4.80;;
67156;SDS011;54086;50.126;8.710;2023-11-19T04:12:23;8.63;;;4.65;;
67156;SDS011;54086;50.126;8.710;2023-11-19T04:14:49;9.33;;;5.10;;
67156;SDS011;54086;50.126;8.710;2023-11-19T04:17:14;8.63;;;4.60;;
67156;SDS011;54086;50.126;8.710;2023-11-19T04:19:39;10.73;;;5.00;;
67156;SDS011;54086;50.126;8.710;2023-11-19T04:22:06;10.40;;;5.37;;
67156;SDS011;54086;50.126;8.710;2023-11-19T04:24:36;9.13;;;5.20;;
67156;SDS011;54086;50.126;8.710;2023-11-19T04:27:02;9.98;;;4.93;;
67156;SDS011;54086;50.126;8.710;2023-11-19T04:29:29;11.05;;;5.22;;
67156;SDS011;54086;50.126;8.710;2023-11-19T04:31:55;7.88;;;4.57;;
67156;SDS011;54086;50.126;8.710;2023-11-19T04:34:21;9.23;;;4.97;;
67156;SDS011;54086;50.126;8.710;2023-11-19T04:36:46;8.23;;;4.20;;
67156;SDS011;54086;50.126;8.710;2023-11-19T04:39:12;9.40;;;4.60;;
67156;SDS011;54086;50.126;8.710;2023-11-19T04:41:50;8.70;;;4.65;;
67156;SDS011;54086;50.126;8.710;2023-11-19T04:44:18;9.55;;;4.70;;
67156;SDS011;54086;50.126;8.710;2023-11-19T04:46:46;8.95;;;4.30;;
67156;SDS011;54086;50.126;8.710;2023-11-19T04:49:12;10.03;;;4.53;;
67156;SDS011;54086;50.126;8.710;2023-11-19T04:51:41;9.18;;;4.30;;
67156;SDS011;54086;50.126;8.710;2023-11-19T04:54:08;7.70;;;4.10;;
67156;SDS011;54086;50.126;8.710;2023-11-19T04:56:37;9.77;;;4.15;;
67156;SDS011;54086;50.126;8.710;2023-11-19T04:59:02;8.80;;;4.50;;
67156;SDS011;54086;50.126;8.710;2023-11-19T05:01:30;8.87;;;4.60;;
67156;SDS011;54086;50.126;8.710;2023-11-19T05:03:56;8.35;;;4.30;;
67156;SDS011;54086;50.126;8.710;2023-11-19T05:06:25;10.30;;;5.25;;
67156;SDS011;54086;50.126;8.710;2023-11-19T05:08:54;9.07;;;4.38;;
67156;SDS011;54086;50.126;8.710;2023-11-19T05:11:26;9.95;;;5.20;;
67156;SDS011;54086;50.126;8.710;2023-11-19T05:13:53;8.60;;;4.47;;
67156;SDS011;54086;50.126;8.710;2023-11-19T05:16:18;8.75;;;5.18;;
67156;SDS011;54086;50.126;8.710;2023-11-19T05:18:45;9.10;;;5.00;;
67156;SDS011;54086;50.126;8.710;2023-11-19T05:21:11;9.57;;;5.23;;
67156;SDS011;54086;50.126;8.710;2023-11-19T05:23:36;10.13;;;5.07;;
67156;SDS011;54086;50.126;8.710;2023-11-19T05:26:02;9.07;;;5.40;;
67156;SDS011;54086;50.126;8.710;2023-11-19T05:28:27;10.80;;;4.97;;
67156;SDS011;54086;50.126;8.710;2023-11-19T05:30:52;10.50;;;4.90;;
67156;SDS011;54086;50.126;8.710;2023-11-19T05:33:18;7.93;;;4.53;;
67156;SDS011;54086;50.126;8.710;2023-11-19T05:35:43;8.73;;;4.80;;
67156;SDS011;54086;50.126;8.710;2023-11-19T05:38:09;7.53;;;4.15;;
67156;SDS011;54086;50.126;8.710;2023-11-19T05:40:34;8.03;;;4.50;;
67156;SDS011;54086;50.126;8.710;2023-11-19T05:43:00;8.57;;;4.38;;
67156;SDS011;54086;50.126;8.710;2023-11-19T05:45:26;8.23;;;4.60;;
67156;SDS011;54086;50.126;8.710;2023-11-19T05:47:51;9.23;;;4.50;;
67156;SDS011;54086;50.126;8.710;2023-11-19T05:50:17;8.77;;;4.77;;
67156;SDS011;54086;50.126;8.710;2023-11-19T05:52:43;9.98;;;5.22;;
67156;SDS011;54086;50.126;8.710;2023-11-19T05:55:09;9.40;;;4.70;;
67156;SDS011;54086;50.126;8.710;2023-11-19T05:57:38;9.35;;;5.25;;
67156;SDS011;54086;50.126;8.710;2023-11-19T06:00:04;8.85;;;4.75;;
67156;SDS011;54086;50.126;8.710;2023-11-19T06:02:33;9.60;;;5.50;;
67156;SDS011;54086;50.126;8.710;2023-11-19T06:04:59;10.20;;;5.72;;
67156;SDS011;54086;50.126;8.710;2023-11-19T06:07:26;10.93;;;5.73;;
67156;SDS011;54086;50.126;8.710;2023-11-19T06:09:51;9.63;;;5.35;;
67156;SDS011;54086;50.126;8.710;2023-11-19T06:12:17;11.83;;;6.40;;
67156;SDS011;54086;50.126;8.710;2023-11-19T06:14:42;10.20;;;5.87;;
67156;SDS011;54086;50.126;8.710;2023-11-19T06:17:08;11.07;;;5.57;;
67156;SDS011;54086;50.126;8.710;2023-11-19T06:19:35;10.38;;;5.88;;
67156;SDS011;54086;50.126;8.710;2023-11-19T06:22:01;10.00;;;5.30;;
67156;SDS011;54086;50.126;8.710;2023-11-19T06:24:26;8.63;;;4.93;;
67156;SDS011;54086;50.126;8.710;2023-11-19T06:26:51;9.27;;;5.20;;
67156;SDS011;54086;50.126;8.710;2023-11-19T06:29:17;10.70;;;4.90;;
67156;SDS011;54086;50.126;8.710;2023-11-19T06:31:44;10.07;;;4.90;;
67156;SDS011;54086;50.126;8.710;2023-11-19T06:34:10;8.30;;;4.32;;
67156;SDS011;54086;50.126;8.710;2023-11-19T06:36:36;8.90;;;4.13;;
67156;SDS011;54086;50.126;8.710;2023-11-19T06:39:01;9.23;;;4.68;;
67156;SDS011;54086;50.126;8.710;2023-11-19T06:41:27;7.83;;;4.13;;
67156;SDS011;54086;50.126;8.710;2023-11-19T06:43:54;8.95;;;4.22;;
67156;SDS011;54086;50.126;8.710;2023-11-19T06:46:19;9.83;;;4.67;;
67156;SDS011;54086;50.126;8.710;2023-11-19T06:48:45;8.52;;;4.55;;
67156;SDS011;54086;50.126;8.710;2023-11-19T06:51:11;9.33;;;4.43;;
67156;SDS011;54086;50.126;8.710;2023-11-19T06:53:37;10.02;;;4.10;;
67156;SDS011;54086;50.126;8.710;2023-11-19T06:56:04;9.75;;;4.40;;
67156;SDS011;54086;50.126;8.710;2023-11-19T06:58:31;8.60;;;4.70;;
67156;SDS011;54086;50.126;8.710;2023-11-19T07:00:57;8.35;;;4.75;;
67156;SDS011;54086;50.126;8.710;2023-11-19T07:03:22;9.67;;;4.73;;
67156;SDS011;54086;50.126;8.710;2023-11-19T07:05:49;8.80;;;4.40;;
67156;SDS011;54086;50.126;8.710;2023-11-19T07:08:14;10.23;;;4.20;;
67156;SDS011;54086;50.126;8.710;2023-11-19T07:10:40;8.90;;;4.47;;
67156;SDS011;54086;50.126;8.710;2023-11-19T07:13:06;9.32;;;4.50;;
67156;SDS011;54086;50.126;8.710;2023-11-19T07:15:31;8.00;;;4.00;;
67156;SDS011;54086;50.126;8.710;2023-11-19T07:17:57;9.60;;;4.53;;
67156;SDS011;54086;50.126;8.710;2023-11-19T07:20:24;8.57;;;4.40;;
67156;SDS011;54086;50.126;8.710;2023-11-19T07:22:51;15.65;;;4.97;;
67156;SDS011;54086;50.126;8.710;2023-11-19T07:25:17;10.23;;;5.10;;
67156;SDS011;54086;50.126;8.710;2023-11-19T07:27:42;8.40;;;4.60;;
67156;SDS011;54086;50.126;8.710;2023-11-19T07:30:08;8.47;;;4.40;;
67156;SDS011;54086;50.126;8.710;2023-11-19T07:32:34;8.15;;;4.28;;
67156;SDS011;54086;50.126;8.710;2023-11-19T07:34:59;8.73;;;4.60;;
67156;SDS011;54086;50.126;8.710;2023-11-19T07:37:25;10.30;;;4.73;;
67156;SDS011;54086;50.126;8.710;2023-11-19T07:39:50;8.35;;;4.28;;
67156;SDS011;54086;50.126;8.710;2023-11-19T07:42:16;9.17;;;5.07;;
67156;SDS011;54086;50.126;8.710;2023-11-19T07:44:42;9.18;;;4.93;;
67156;SDS011;54086;50.126;8.710;2023-11-19T07:47:08;9.13;;;4.40;;
67156;SDS011;54086;50.126;8.710;2023-11-19T07:49:33;10.27;;;4.80;;
67156;SDS011;54086;50.126;8.710;2023-11-19T07:51:59;8.57;;;4.50;;
67156;SDS011;54086;50.126;8.710;2023-11-19T07:54:24;9.37;;;4.73;;
67156;SDS011;54086;50.126;8.710;2023-11-19T07:56:50;10.43;;;5.03;;
67156;SDS011;54086;50.126;8.710;2023-11-19T07:59:15;9.87;;;5.40;;
67156;SDS011;54086;50.126;8.710;2023-11-19T08:01:41;10.50;;;5.00;;
67156;SDS011;54086;50.126;8.710;2023-11-19T08:04:06;8.67;;;4.33;;
67156;SDS011;54086;50.126;8.710;2023-11-19T08:06:32;9.13;;;4.60;;
67156;SDS011;54086;50.126;8.710;2023-11-19T08:08:57;8.77;;;4.17;;
67156;SDS011;54086;50.126;8.710;2023-11-19T08:11:23;9.23;;;4.17;;
67156;SDS011;54086;50.126;8.710;2023-11-19T08:13:49;8.43;;;4.28;;
67156;SDS011;54086;50.126;8.710;2023-11-19T08:16:14;8.70;;;4.63;;
67156;SDS011;54086;50.126;8.710;2023-11-19T08:18:41;8.60;;;4.68;;
67156;SDS011;54086;50.126;8.710;2023-11-19T08:21:08;9.30;;;4.18;;
67156;SDS011;54086;50.126;8.710;2023-11-19T08:23:34;10.57;;;4.83;;
67156;SDS011;54086;50.126;8.710;2023-11-19T08:25:59;11.00;;;5.20;;
67156;SDS011;54086;50.126;8.710;2023-11-19T08:28:25;10.83;;;5.27;;
67156;SDS011;54086;50.126;8.710;2023-11-19T08:30:50;8.53;;;4.23;;
67156;SDS011;54086;50.126;8.710;2023-11-19T08:33:16;8.40;;;4.53;;
67156;SDS011;54086;50.126;8.710;2023-11-19T08:35:42;8.60;;;4.55;;
67156;SDS011;54086;50.126;8.710;2023-11-19T08:38:07;8.75;;;4.85;;
67156;SDS011;54086;50.126;8.710;2023-11-19T08:40:33;10.07;;;5.30;;
67156;SDS011;54086;50.126;8.710;2023-11-19T08:42:58;9.00;;;4.63;;
67156;SDS011;54086;50.126;8.710;2023-11-19T08:45:24;8.17;;;4.53;;
67156;SDS011;54086;50.126;8.710;2023-11-19T08:47:50;10.65;;;4.82;;
67156;SDS011;54086;50.126;8.710;2023-11-19T08:50:15;9.23;;;4.90;;
67156;SDS011;54086;50.126;8.710;2023-11-19T08:52:41;9.00;;;5.20;;
67156;SDS011;54086;50.126;8.710;2023-11-19T08:55:06;9.45;;;5.38;;
67156;SDS011;54086;50.126;8.710;2023-11-19T08:57:32;8.83;;;4.67;;
67156;SDS011;54086;50.126;8.710;2023-11-19T08:59:58;9.18;;;4.78;;
67156;SDS011;54086;50.126;8.710;2023-11-19T09:02:24;10.57;;;5.40;;
67156;SDS011;54086;50.126;8.710;2023-11-19T09:04:49;9.20;;;4.87;;
67156;SDS011;54086;50.126;8.710;2023-11-19T09:07:15;10.25;;;5.50;;
67156;SDS011;54086;50.126;8.710;2023-11-19T09:09:41;11.40;;;5.27;;
67156;SDS011;54086;50.126;8.710;2023-11-19T09:12:06;9.70;;;5.70;;
67156;SDS011;54086;50.126;8.710;2023-11-19T09:14:32;10.38;;;6.20;;
67156;SDS011;54086;50.126;8.710;2023-11-19T09:16:58;10.03;;;5.57;;
67156;SDS011;54086;50.126;8.710;2023-11-19T09:19:23;10.07;;;5.10;;
67156;SDS011;54086;50.126;8.710;2023-11-19T09:21:49;9.20;;;5.53;;
67156;SDS011;54086;50.126;8.710;2023-11-19T09:24:15;9.50;;;5.53;;
67156;SDS011;54086;50.126;8.710;2023-11-19T09:26:41;9.07;;;5.10;;
67156;SDS011;54086;50.126;8.710;2023-11-19T09:29:10;10.07;;;4.63;;
67156;SDS011;54086;50.126;8.710;2023-11-19T09:31:37;9.37;;;4.77;;
67156;SDS011;54086;50.126;8.710;2023-11-19T09:34:03;8.63;;;4.88;;
67156;SDS011;54086;50.126;8.710;2023-11-19T09:36:28;10.03;;;4.90;;
67156;SDS011;54086;50.126;8.710;2023-11-19T09:38:54;8.20;;;4.57;;
67156;SDS011;54086;50.126;8.710;2023-11-19T09:41:19;8.70;;;4.90;;
67156;SDS011;54086;50.126;8.710;2023-11-19T09:43:44;8.30;;;4.40;;
67156;SDS011;54086;50.126;8.710;2023-11-19T09:46:11;8.38;;;4.55;;
67156;SDS011;54086;50.126;8.710;2023-11-19T09:48:39;21.40;;;6.35;;
67156;SDS011;54086;50.126;8.710;2023-11-19T09:51:07;8.20;;;4.30;;
67156;SDS011;54086;50.126;8.710;2023-11-19T09:53:34;9.32;;;4.60;;
67156;SDS011;54086;50.126;8.710;2023-11-19T09:56:01;8.30;;;3.73;;
67156;SDS011;54086;50.126;8.710;2023-11-19T09:58:28;8.98;;;3.85;;
67156;SDS011;54086;50.126;8.710;2023-11-19T10:00:55;7.97;;;3.38;;
67156;SDS011;54086;50.126;8.710;2023-11-19T10:03:20;9.40;;;2.97;;
67156;SDS011;54086;50.126;8.710;2023-11-19T10:05:48;8.57;;;2.60;;
67156;SDS011;54086;50.126;8.710;2023-11-19T10:08:13;10.70;;;2.50;;
67156;SDS011;54086;50.126;8.710;2023-11-19T10:10:39;7.30;;;2.83;;
67156;SDS011;54086;50.126;8.710;2023-11-19T10:13:04;8.10;;;2.50;;
67156;SDS011;54086;50.126;8.710;2023-11-19T10:15:33;7.78;;;2.33;;
67156;SDS011;54086;50.126;8.710;2023-11-19T10:18:02;6.38;;;2.30;;
67156;SDS011;54086;50.126;8.710;2023-11-19T10:20:29;7.40;;;2.65;;
67156;SDS011;54086;50.126;8.710;2023-11-19T10:23:00;6.63;;;2.40;;
67156;SDS011;54086;50.126;8.710;2023-11-19T10:25:26;7.27;;;2.17;;
67156;SDS011;54086;50.126;8.710;2023-11-19T10:27:53;7.88;;;2.42;;
67156;SDS011;54086;50.126;8.710;2023-11-19T10:30:28;6.13;;;2.10;;
67156;SDS011;54086;50.126;8.710;2023-11-19T10:33:05;9.48;;;2.00;;
67156;SDS011;54086;50.126;8.710;2023-11-19T10:35:35;7.95;;;2.10;;
67156;SDS011;54086;50.126;8.710;2023-11-19T10:38:18;8.02;;;2.20;;
67156;SDS011;54086;50.126;8.710;2023-11-19T10:40:43;6.47;;;2.13;;
67156;SDS011;54086;50.126;8.710;2023-11-19T10:43:09;6.27;;;1.93;;
67156;SDS011;54086;50.126;8.710;2023-11-19T10:45:35;9.00;;;2.20;;
67156;SDS011;54086;50.126;8.710;2023-11-19T10:48:02;10.32;;;2.00;;
67156;SDS011;54086;50.126;8.710;2023-11-19T10:50:31;7.38;;;1.80;;
67156;SDS011;54086;50.126;8.710;2023-11-19T10:53:01;10.63;;;2.23;;
67156;SDS011;54086;50.126;8.710;2023-11-19T10:55:31;8.73;;;1.60;;
67156;SDS011;54086;50.126;8.710;2023-11-19T10:58:01;9.77;;;2.28;;
67156;SDS011;54086;50.126;8.710;2023-11-19T11:00:29;6.32;;;1.52;;
67156;SDS011;54086;50.126;8.710;2023-11-19T11:02:59;7.57;;;1.98;;
67156;SDS011;54086;50.126;8.710;2023-11-19T11:05:26;7.70;;;2.13;;
67156;SDS011;54086;50.126;8.710;2023-11-19T11:07:52;11.38;;;1.73;;
67156;SDS011;54086;50.126;8.710;2023-11-19T11:10:20;10.52;;;2.58;;
67156;SDS011;54086;50.126;8.710;2023-11-19T11:12:51;8.98;;;1.80;;
67156;SDS011;54086;50.126;8.710;2023-11-19T11:15:22;7.50;;;1.77;;
67156;SDS011;54086;50.126;8.710;2023-11-19T11:17:51;7.90;;;1.80;;
67156;SDS011;54086;50.126;8.710;2023-11-19T11:20:19;7.57;;;1.80;;
67156;SDS011;54086;50.126;8.710;2023-11-19T11:22:53;7.20;;;1.60;;
67156;SDS011;54086;50.126;8.710;2023-11-19T11:28:15;9.43;;;2.00;;
67156;SDS011;54086;50.126;8.710;2023-11-19T11:31:09;9.48;;;1.60;;
67156;SDS011;54086;50.126;8.710;2023-11-19T11:36:19;11.90;;;2.20;;
67156;SDS011;54086;50.126;8.710;2023-11-19T11:38:47;10.27;;;1.90;;
67156;SDS011;54086;50.126;8.710;2023-11-19T11:41:17;10.57;;;2.23;;
67156;SDS011;54086;50.126;8.710;2023-11-19T11:49:01;11.77;;;1.70;;
67156;SDS011;54086;50.126;8.710;2023-11-19T11:54:09;9.87;;;1.83;;
67156;SDS011;54086;50.126;8.710;2023-11-19T11:56:38;8.18;;;2.17;;
67156;SDS011;54086;50.126;8.710;2023-11-19T11:59:07;11.85;;;2.25;;
67156;SDS011;54086;50.126;8.710;2023-11-19T12:01:34;14.00;;;2.33;;
67156;SDS011;54086;50.126;8.710;2023-11-19T12:04:00;9.15;;;2.15;;
67156;SDS011;54086;50.126;8.710;2023-11-19T12:06:26;12.07;;;2.50;;
67156;SDS011;54086;50.126;8.710;2023-11-19T12:08:52;9.85;;;2.13;;
67156;SDS011;54086;50.126;8.710;2023-11-19T12:11:24;10.95;;;2.22;;
67156;SDS011;54086;50.126;8.710;2023-11-19T12:13:55;7.88;;;1.67;;
67156;SDS011;54086;50.126;8.710;2023-11-19T12:16:23;8.60;;;2.08;;
67156;SDS011;54086;50.126;8.710;2023-11-19T12:18:48;10.30;;;1.50;;
67156;SDS011;54086;50.126;8.710;2023-11-19T12:21:27;11.75;;;1.75;;
67156;SDS011;54086;50.126;8.710;2023-11-19T12:23:57;8.48;;;1.90;;
67156;SDS011;54086;50.126;8.710;2023-11-19T12:26:34;7.43;;;2.03;;
67156;SDS011;54086;50.126;8.710;2023-11-19T12:29:00;9.93;;;2.00;;
67156;SDS011;54086;50.126;8.710;2023-11-19T12:31:28;10.38;;;1.90;;
67156;SDS011;54086;50.126;8.710;2023-11-19T12:33:54;9.50;;;2.00;;
67156;SDS011;54086;50.126;8.710;2023-11-19T12:36:20;9.23;;;2.25;;
67156;SDS011;54086;50.126;8.710;2023-11-19T12:38:45;9.20;;;1.80;;
67156;SDS011;54086;50.126;8.710;2023-11-19T12:41:11;9.88;;;2.25;;
67156;SDS011;54086;50.126;8.710;2023-11-19T12:43:37;9.97;;;2.13;;
67156;SDS011;54086;50.126;8.710;2023-11-19T12:46:24;9.98;;;2.20;;
67156;SDS011;54086;50.126;8.710;2023-11-19T12:48:49;9.77;;;1.77;;
67156;SDS011;54086;50.126;8.710;2023-11-19T12:51:16;8.20;;;1.90;;
67156;SDS011;54086;50.126;8.710;2023-11-19T12:53:48;13.00;;;2.42;;
67156;SDS011;54086;50.126;8.710;2023-11-19T12:56:19;9.60;;;2.17;;
67156;SDS011;54086;50.126;8.710;2023-11-19T12:58:46;8.68;;;2.10;;
67156;SDS011;54086;50.126;8.710;2023-11-19T13:01:15;10.15;;;1.90;;
67156;SDS011;54086;50.126;8.710;2023-11-19T13:03:42;9.75;;;2.45;;
67156;SDS011;54086;50.126;8.710;2023-11-19T13:06:08;8.37;;;1.60;;
67156;SDS011;54086;50.126;8.710;2023-11-19T13:08:39;9.63;;;2.42;;
67156;SDS011;54086;50.126;8.710;2023-11-19T13:11:14;9.00;;;1.70;;
67156;SDS011;54086;50.126;8.710;2023-11-19T13:13:58;8.40;;;2.13;;
67156;SDS011;54086;50.126;8.710;2023-11-19T13:16:26;6.97;;;1.85;;
67156;SDS011;54086;50.126;8.710;2023-11-19T13:18:52;7.32;;;1.50;;
67156;SDS011;54086;50.126;8.710;2023-11-19T13:21:18;7.93;;;1.70;;
67156;SDS011;54086;50.126;8.710;2023-11-19T13:23:43;7.10;;;1.70;;
67156;SDS011;54086;50.126;8.710;2023-11-19T13:26:10;9.97;;;2.13;;
67156;SDS011;54086;50.126;8.710;2023-11-19T13:28:36;8.73;;;1.65;;
67156;SDS011;54086;50.126;8.710;2023-11-19T13:31:01;11.32;;;1.73;;
67156;SDS011;54086;50.126;8.710;2023-11-19T13:33:28;11.35;;;2.45;;
67156;SDS011;54086;50.126;8.710;2023-11-19T13:35:54;8.60;;;1.90;;
67156;SDS011;54086;50.126;8.710;2023-11-19T13:38:20;8.82;;;1.70;;
67156;SDS011;54086;50.126;8.710;2023-11-19T13:40:45;9.37;;;2.00;;
67156;SDS011;54086;50.126;8.710;2023-11-19T13:43:10;12.47;;;2.27;;
67156;SDS011;54086;50.126;8.710;2023-11-19T13:45:36;9.98;;;2.15;;
67156;SDS011;54086;50.126;8.710;2023-11-19T13:48:02;11.38;;;2.50;;
67156;SDS011;54086;50.126;8.710;2023-11-19T13:50:28;12.30;;;2.30;;
67156;SDS011;54086;50.126;8.710;2023-11-19T13:52:54;10.60;;;2.50;;
67156;SDS011;54086;50.126;8.710;2023-11-19T13:55:19;7.57;;;1.50;;
67156;SDS011;54086;50.126;8.710;2023-11-19T13:57:45;8.47;;;1.90;;
67156;SDS011;54086;50.126;8.710;2023-11-19T14:00:11;9.07;;;2.13;;
67156;SDS011;54086;50.126;8.710;2023-11-19T14:02:44;9.07;;;1.93;;
67156;SDS011;54086;50.126;8.710;2023-11-19T14:05:11;7.45;;;1.90;;
67156;SDS011;54086;50.126;8.710;2023-11-19T14:07:37;7.53;;;1.95;;
67156;SDS011;54086;50.126;8.710;2023-11-19T14:10:03;13.68;;;2.78;;
67156;SDS011;54086;50.126;8.710;2023-11-19T14:12:30;8.82;;;1.90;;
67156;SDS011;54086;50.126;8.710;2023-11-19T14:14:57;7.83;;;1.83;;
67156;SDS011;54086;50.126;8.710;2023-11-19T14:17:22;11.35;;;2.78;;
67156;SDS011;54086;50.126;8.710;2023-11-19T14:19:48;10.30;;;1.90;;
67156;SDS011;54086;50.126;8.710;2023-11-19T14:22:13;9.63;;;2.03;;
67156;SDS011;54086;50.126;8.710;2023-11-19T14:24:38;8.10;;;1.80;;
67156;SDS011;54086;50.126;8.710;2023-11-19T14:27:06;9.75;;;2.03;;
67156;SDS011;54086;50.126;8.710;2023-11-19T14:29:32;9.10;;;1.90;;
67156;SDS011;54086;50.126;8.710;2023-11-19T14:31:57;9.70;;;1.97;;
67156;SDS011;54086;50.126;8.710;2023-11-19T14:34:24;10.45;;;2.10;;
67156;SDS011;54086;50.126;8.710;2023-11-19T14:36:51;9.43;;;1.90;;
67156;SDS011;54086;50.126;8.710;2023-11-19T14:39:16;10.05;;;2.08;;
67156;SDS011;54086;50.126;8.710;2023-11-19T14:41:45;12.37;;;2.43;;
67156;SDS011;54086;50.126;8.710;2023-11-19T14:44:10;11.10;;;1.80;;
67156;SDS011;54086;50.126;8.710;2023-11-19T14:46:36;9.73;;;1.80;;
67156;SDS011;54086;50.126;8.710;2023-11-19T14:49:01;10.48;;;2.10;;
67156;SDS011;54086;50.126;8.710;2023-11-19T14:51:28;11.00;;;2.23;;
67156;SDS011;54086;50.126;8.710;2023-11-19T14:53:54;8.32;;;1.92;;
67156;SDS011;54086;50.126;8.710;2023-11-19T14:56:19;8.57;;;2.00;;